sensor_id;sensor_type;location;lat;lon;timestamp;temperature;humidity
32706;DHT22;19094;50.972;3.538;2023-02-11T00:00:12;11.20;65.10
32706;DHT22;19094;50.972;3.538;2023-02-11T00:02:38;11.20;65.00
32706;DHT22;19094;50.972;3.538;2023-02-11T00:05:04;11.30;65.00
32706;DHT22;19094;50.972;3.538;2023-02-11T00:07:31;11.30;65.00
32706;DHT22;19094;50.972;3.538;2023-02-11T00:09:57;11.20;64.90
32706;DHT22;19094;50.972;3.538;2023-02-11T00:12:22;11.30;64.90
32706;DHT22;19094;50.972;3.538;2023-02-11T00:14:48;11.20;65.00
32706;DHT22;19094;50.972;3.538;2023-02-11T00:17:14;11.20;65.00
32706;DHT22;19094;50.972;3.538;2023-02-11T00:19:39;11.20;64.90
32706;DHT22;19094;50.972;3.538;2023-02-11T00:22:05;11.20;65.10
32706;DHT22;19094;50.972;3.538;2023-02-11T00:24:31;11.20;64.90
32706;DHT22;19094;50.972;3.538;2023-02-11T00:26:57;11.30;64.90
32706;DHT22;19094;50.972;3.538;2023-02-11T00:29:23;11.30;64.90
32706;DHT22;19094;50.972;3.538;2023-02-11T00:31:49;11.30;64.90
32706;DHT22;19094;50.972;3.538;2023-02-11T00:34:15;11.30;64.80
32706;DHT22;19094;50.972;3.538;2023-02-11T00:36:41;11.20;64.90
32706;DHT22;19094;50.972;3.538;2023-02-11T00:39:07;11.20;64.80
32706;DHT22;19094;50.972;3.538;2023-02-11T00:41:33;11.20;65.00
32706;DHT22;19094;50.972;3.538;2023-02-11T00:44:00;11.20;65.00
32706;DHT22;19094;50.972;3.538;2023-02-11T00:46:26;11.20;65.10
32706;DHT22;19094;50.972;3.538;2023-02-11T00:48:52;11.20;64.90
32706;DHT22;19094;50.972;3.538;2023-02-11T00:51:25;11.20;64.90
32706;DHT22;19094;50.972;3.538;2023-02-11T00:53:51;11.20;65.00
32706;DHT22;19094;50.972;3.538;2023-02-11T00:56:17;11.20;65.00
32706;DHT22;19094;50.972;3.538;2023-02-11T00:58:42;11.20;65.10
32706;DHT22;19094;50.972;3.538;2023-02-11T01:01:08;11.20;65.10
32706;DHT22;19094;50.972;3.538;2023-02-11T01:03:34;11.20;64.90
32706;DHT22;19094;50.972;3.538;2023-02-11T01:06:00;11.20;65.10
32706;DHT22;19094;50.972;3.538;2023-02-11T01:08:26;11.20;64.90
32706;DHT22;19094;50.972;3.538;2023-02-11T01:10:57;11.20;64.90
32706;DHT22;19094;50.972;3.538;2023-02-11T01:13:23;11.20;64.90
32706;DHT22;19094;50.972;3.538;2023-02-11T01:15:49;11.20;64.90
32706;DHT22;19094;50.972;3.538;2023-02-11T01:18:15;11.20;65.00
32706;DHT22;19094;50.972;3.538;2023-02-11T01:20:41;11.20;65.00
32706;DHT22;19094;50.972;3.538;2023-02-11T01:23:06;11.20;65.00
32706;DHT22;19094;50.972;3.538;2023-02-11T01:25:32;11.20;65.00
32706;DHT22;19094;50.972;3.538;2023-02-11T01:27:58;11.20;65.00
32706;DHT22;19094;50.972;3.538;2023-02-11T01:30:23;11.20;65.00
32706;DHT22;19094;50.972;3.538;2023-02-11T01:32:49;11.20;64.90
32706;DHT22;19094;50.972;3.538;2023-02-11T01:35:15;11.20;65.00
32706;DHT22;19094;50.972;3.538;2023-02-11T01:37:41;11.20;65.00
32706;DHT22;19094;50.972;3.538;2023-02-11T01:40:13;11.20;65.10
32706;DHT22;19094;50.972;3.538;2023-02-11T01:42:40;11.20;65.00
32706;DHT22;19094;50.972;3.538;2023-02-11T01:48:15;11.20;64.90
32706;DHT22;19094;50.972;3.538;2023-02-11T01:50:45;11.10;65.00
32706;DHT22;19094;50.972;3.538;2023-02-11T01:53:11;11.20;65.20
32706;DHT22;19094;50.972;3.538;2023-02-11T01:55:56;11.10;65.20
32706;DHT22;19094;50.972;3.538;2023-02-11T01:58:43;11.10;65.30
32706;DHT22;19094;50.972;3.538;2023-02-11T02:01:13;11.20;65.10
32706;DHT22;19094;50.972;3.538;2023-02-11T02:03:42;11.10;65.10
32706;DHT22;19094;50.972;3.538;2023-02-11T02:06:14;11.20;65.20
32706;DHT22;19094;50.972;3.538;2023-02-11T02:11:20;11.20;65.10
32706;DHT22;19094;50.972;3.538;2023-02-11T02:13:46;11.20;65.10
32706;DHT22;19094;50.972;3.538;2023-02-11T02:16:13;11.20;65.10
32706;DHT22;19094;50.972;3.538;2023-02-11T02:21:36;11.20;65.10
32706;DHT22;19094;50.972;3.538;2023-02-11T02:27:33;11.20;65.10
32706;DHT22;19094;50.972;3.538;2023-02-11T02:33:09;11.20;65.10
32706;DHT22;19094;50.972;3.538;2023-02-11T02:35:54;11.20;65.10
32706;DHT22;19094;50.972;3.538;2023-02-11T02:38:27;11.10;65.10
32706;DHT22;19094;50.972;3.538;2023-02-11T02:41:07;11.20;65.30
32706;DHT22;19094;50.972;3.538;2023-02-11T02:43:34;11.20;65.20
32706;DHT22;19094;50.972;3.538;2023-02-11T02:46:27;11.10;65.30
32706;DHT22;19094;50.972;3.538;2023-02-11T02:48:54;11.10;65.30
32706;DHT22;19094;50.972;3.538;2023-02-11T02:54:25;11.10;65.30
32706;DHT22;19094;50.972;3.538;2023-02-11T02:56:56;11.20;65.30
32706;DHT22;19094;50.972;3.538;2023-02-11T02:59:45;11.20;65.30
32706;DHT22;19094;50.972;3.538;2023-02-11T03:02:30;11.10;65.30
32706;DHT22;19094;50.972;3.538;2023-02-11T03:07:58;11.20;65.30
32706;DHT22;19094;50.972;3.538;2023-02-11T03:10:45;11.10;65.40
32706;DHT22;19094;50.972;3.538;2023-02-11T03:13:13;11.20;65.40
32706;DHT22;19094;50.972;3.538;2023-02-11T03:15:45;11.20;65.30
32706;DHT22;19094;50.972;3.538;2023-02-11T03:18:14;11.10;65.40
32706;DHT22;19094;50.972;3.538;2023-02-11T03:20:43;11.20;65.50
32706;DHT22;19094;50.972;3.538;2023-02-11T03:25:41;11.10;65.50
32706;DHT22;19094;50.972;3.538;2023-02-11T03:28:52;11.20;65.50
32706;DHT22;19094;50.972;3.538;2023-02-11T03:31:07;11.20;65.40
32706;DHT22;19094;50.972;3.538;2023-02-11T03:34:09;11.20;65.30
32706;DHT22;19094;50.972;3.538;2023-02-11T03:37:09;11.20;65.30
32706;DHT22;19094;50.972;3.538;2023-02-11T03:39:53;11.10;65.70
32706;DHT22;19094;50.972;3.538;2023-02-11T03:42:22;11.10;65.60
32706;DHT22;19094;50.972;3.538;2023-02-11T03:44:53;11.20;65.50
32706;DHT22;19094;50.972;3.538;2023-02-11T03:47:24;11.20;65.40
32706;DHT22;19094;50.972;3.538;2023-02-11T03:49:52;11.20;65.40
32706;DHT22;19094;50.972;3.538;2023-02-11T03:52:21;11.20;65.40
32706;DHT22;19094;50.972;3.538;2023-02-11T03:54:52;11.20;65.50
32706;DHT22;19094;50.972;3.538;2023-02-11T03:57:18;11.20;65.60
32706;DHT22;19094;50.972;3.538;2023-02-11T03:59:57;11.10;65.50
32706;DHT22;19094;50.972;3.538;2023-02-11T04:02:28;11.10;65.50
32706;DHT22;19094;50.972;3.538;2023-02-11T04:04:55;11.10;65.60
32706;DHT22;19094;50.972;3.538;2023-02-11T04:07:22;11.10;65.60
32706;DHT22;19094;50.972;3.538;2023-02-11T04:09:48;11.10;65.50
32706;DHT22;19094;50.972;3.538;2023-02-11T04:12:14;11.20;65.60
32706;DHT22;19094;50.972;3.538;2023-02-11T04:14:39;11.10;65.60
32706;DHT22;19094;50.972;3.538;2023-02-11T04:17:05;11.20;65.60
32706;DHT22;19094;50.972;3.538;2023-02-11T04:19:31;11.10;65.60
32706;DHT22;19094;50.972;3.538;2023-02-11T04:21:57;11.10;65.70
32706;DHT22;19094;50.972;3.538;2023-02-11T04:24:23;11.10;65.60
32706;DHT22;19094;50.972;3.538;2023-02-11T04:26:48;11.20;65.70
32706;DHT22;19094;50.972;3.538;2023-02-11T04:29:14;11.10;66.40
32706;DHT22;19094;50.972;3.538;2023-02-11T04:31:40;11.10;65.60
32706;DHT22;19094;50.972;3.538;2023-02-11T04:34:05;11.20;65.60
32706;DHT22;19094;50.972;3.538;2023-02-11T04:36:31;11.20;65.60
32706;DHT22;19094;50.972;3.538;2023-02-11T04:38:56;11.20;65.70
32706;DHT22;19094;50.972;3.538;2023-02-11T04:41:22;11.20;65.60
32706;DHT22;19094;50.972;3.538;2023-02-11T04:43:48;11.20;65.50
32706;DHT22;19094;50.972;3.538;2023-02-11T04:46:13;11.20;65.60
32706;DHT22;19094;50.972;3.538;2023-02-11T04:48:39;11.20;65.60
32706;DHT22;19094;50.972;3.538;2023-02-11T04:51:05;11.20;65.50
32706;DHT22;19094;50.972;3.538;2023-02-11T04:53:30;11.20;65.60
32706;DHT22;19094;50.972;3.538;2023-02-11T04:55:56;11.20;65.60
32706;DHT22;19094;50.972;3.538;2023-02-11T04:58:22;11.10;65.60
32706;DHT22;19094;50.972;3.538;2023-02-11T05:00:48;11.10;65.70
32706;DHT22;19094;50.972;3.538;2023-02-11T05:03:14;11.20;65.90
32706;DHT22;19094;50.972;3.538;2023-02-11T05:05:41;11.20;65.70
32706;DHT22;19094;50.972;3.538;2023-02-11T05:08:08;11.20;65.80
32706;DHT22;19094;50.972;3.538;2023-02-11T05:10:33;11.20;65.90
32706;DHT22;19094;50.972;3.538;2023-02-11T05:12:59;11.10;65.90
32706;DHT22;19094;50.972;3.538;2023-02-11T05:15:26;11.20;65.90
32706;DHT22;19094;50.972;3.538;2023-02-11T05:17:52;11.20;65.80
32706;DHT22;19094;50.972;3.538;2023-02-11T05:20:17;11.20;65.90
32706;DHT22;19094;50.972;3.538;2023-02-11T05:22:43;11.20;65.90
32706;DHT22;19094;50.972;3.538;2023-02-11T05:25:09;11.20;65.90
32706;DHT22;19094;50.972;3.538;2023-02-11T05:27:35;11.20;65.90
32706;DHT22;19094;50.972;3.538;2023-02-11T05:30:00;11.20;65.90
32706;DHT22;19094;50.972;3.538;2023-02-11T05:32:26;11.20;65.90
32706;DHT22;19094;50.972;3.538;2023-02-11T05:34:51;11.20;65.90
32706;DHT22;19094;50.972;3.538;2023-02-11T05:37:17;11.20;65.90
32706;DHT22;19094;50.972;3.538;2023-02-11T05:39:43;11.20;65.90
32706;DHT22;19094;50.972;3.538;2023-02-11T05:42:09;11.30;65.80
32706;DHT22;19094;50.972;3.538;2023-02-11T05:44:34;11.20;65.80
32706;DHT22;19094;50.972;3.538;2023-02-11T05:47:00;11.20;65.80
32706;DHT22;19094;50.972;3.538;2023-02-11T05:49:26;11.20;65.90
32706;DHT22;19094;50.972;3.538;2023-02-11T05:51:52;11.20;65.90
32706;DHT22;19094;50.972;3.538;2023-02-11T05:54:18;11.20;65.90
32706;DHT22;19094;50.972;3.538;2023-02-11T05:56:44;11.20;65.90
32706;DHT22;19094;50.972;3.538;2023-02-11T05:59:12;11.20;66.20
32706;DHT22;19094;50.972;3.538;2023-02-11T06:01:38;11.20;66.00
32706;DHT22;19094;50.972;3.538;2023-02-11T06:04:04;11.20;66.10
32706;DHT22;19094;50.972;3.538;2023-02-11T06:06:30;11.20;66.20
32706;DHT22;19094;50.972;3.538;2023-02-11T06:08:56;11.20;66.40
32706;DHT22;19094;50.972;3.538;2023-02-11T06:11:21;11.20;66.40
32706;DHT22;19094;50.972;3.538;2023-02-11T06:13:47;11.20;66.40
32706;DHT22;19094;50.972;3.538;2023-02-11T06:16:13;11.20;66.40
32706;DHT22;19094;50.972;3.538;2023-02-11T06:18:38;11.20;66.40
32706;DHT22;19094;50.972;3.538;2023-02-11T06:21:09;11.20;66.40
32706;DHT22;19094;50.972;3.538;2023-02-11T06:23:35;11.10;66.40
32706;DHT22;19094;50.972;3.538;2023-02-11T06:26:03;11.20;66.60
32706;DHT22;19094;50.972;3.538;2023-02-11T06:28:29;11.20;66.50
32706;DHT22;19094;50.972;3.538;2023-02-11T06:31:03;11.20;66.60
32706;DHT22;19094;50.972;3.538;2023-02-11T06:33:30;11.20;66.70
32706;DHT22;19094;50.972;3.538;2023-02-11T06:35:56;11.20;66.60
32706;DHT22;19094;50.972;3.538;2023-02-11T06:38:22;11.20;66.50
32706;DHT22;19094;50.972;3.538;2023-02-11T06:40:48;11.20;66.70
32706;DHT22;19094;50.972;3.538;2023-02-11T06:43:14;11.20;66.70
32706;DHT22;19094;50.972;3.538;2023-02-11T06:45:40;11.20;66.70
32706;DHT22;19094;50.972;3.538;2023-02-11T06:48:06;11.20;66.70
32706;DHT22;19094;50.972;3.538;2023-02-11T06:50:31;11.20;66.70
32706;DHT22;19094;50.972;3.538;2023-02-11T06:53:00;11.20;66.70
32706;DHT22;19094;50.972;3.538;2023-02-11T06:55:26;11.20;66.70
32706;DHT22;19094;50.972;3.538;2023-02-11T06:57:55;11.20;66.80
32706;DHT22;19094;50.972;3.538;2023-02-11T07:00:21;11.20;66.80
32706;DHT22;19094;50.972;3.538;2023-02-11T07:02:46;11.20;66.90
32706;DHT22;19094;50.972;3.538;2023-02-11T07:05:12;11.20;66.80
32706;DHT22;19094;50.972;3.538;2023-02-11T07:07:38;11.20;66.60
32706;DHT22;19094;50.972;3.538;2023-02-11T07:10:03;11.20;66.80
32706;DHT22;19094;50.972;3.538;2023-02-11T07:12:30;11.30;66.50
32706;DHT22;19094;50.972;3.538;2023-02-11T07:14:57;11.30;66.40
32706;DHT22;19094;50.972;3.538;2023-02-11T07:17:22;11.30;66.40
32706;DHT22;19094;50.972;3.538;2023-02-11T07:19:48;11.30;66.90
32706;DHT22;19094;50.972;3.538;2023-02-11T07:22:14;11.20;66.90
32706;DHT22;19094;50.972;3.538;2023-02-11T07:24:39;11.20;67.00
32706;DHT22;19094;50.972;3.538;2023-02-11T07:27:05;11.30;66.90
32706;DHT22;19094;50.972;3.538;2023-02-11T07:29:31;11.20;66.90
32706;DHT22;19094;50.972;3.538;2023-02-11T07:31:57;11.20;67.10
32706;DHT22;19094;50.972;3.538;2023-02-11T07:34:23;11.20;67.20
32706;DHT22;19094;50.972;3.538;2023-02-11T07:36:49;11.20;67.00
32706;DHT22;19094;50.972;3.538;2023-02-11T07:39:15;11.30;67.00
32706;DHT22;19094;50.972;3.538;2023-02-11T07:41:40;11.20;67.20
32706;DHT22;19094;50.972;3.538;2023-02-11T07:44:07;11.30;67.20
32706;DHT22;19094;50.972;3.538;2023-02-11T07:46:33;11.30;67.20
32706;DHT22;19094;50.972;3.538;2023-02-11T07:49:00;11.20;67.20
32706;DHT22;19094;50.972;3.538;2023-02-11T07:51:27;11.20;67.40
32706;DHT22;19094;50.972;3.538;2023-02-11T07:53:54;11.30;67.40
32706;DHT22;19094;50.972;3.538;2023-02-11T07:56:20;11.20;67.30
32706;DHT22;19094;50.972;3.538;2023-02-11T07:58:47;11.20;67.50
32706;DHT22;19094;50.972;3.538;2023-02-11T08:01:17;11.20;67.60
32706;DHT22;19094;50.972;3.538;2023-02-11T08:03:43;11.20;67.70
32706;DHT22;19094;50.972;3.538;2023-02-11T08:06:14;11.20;67.50
32706;DHT22;19094;50.972;3.538;2023-02-11T08:08:41;11.30;67.40
32706;DHT22;19094;50.972;3.538;2023-02-11T08:11:09;11.30;67.40
32706;DHT22;19094;50.972;3.538;2023-02-11T08:13:35;11.30;67.60
32706;DHT22;19094;50.972;3.538;2023-02-11T08:16:02;11.20;67.80
32706;DHT22;19094;50.972;3.538;2023-02-11T08:18:28;11.20;67.90
32706;DHT22;19094;50.972;3.538;2023-02-11T08:20:54;11.30;67.80
32706;DHT22;19094;50.972;3.538;2023-02-11T08:23:20;11.30;68.40
32706;DHT22;19094;50.972;3.538;2023-02-11T08:25:45;11.30;67.60
32706;DHT22;19094;50.972;3.538;2023-02-11T08:28:11;11.30;67.50
32706;DHT22;19094;50.972;3.538;2023-02-11T08:30:36;11.30;67.40
32706;DHT22;19094;50.972;3.538;2023-02-11T08:33:02;11.30;67.50
32706;DHT22;19094;50.972;3.538;2023-02-11T08:35:28;11.40;67.50
32706;DHT22;19094;50.972;3.538;2023-02-11T08:37:53;11.30;67.40
32706;DHT22;19094;50.972;3.538;2023-02-11T08:40:19;11.40;67.40
32706;DHT22;19094;50.972;3.538;2023-02-11T08:42:45;11.40;67.30
32706;DHT22;19094;50.972;3.538;2023-02-11T08:45:11;11.40;67.40
32706;DHT22;19094;50.972;3.538;2023-02-11T08:47:40;11.40;67.30
32706;DHT22;19094;50.972;3.538;2023-02-11T08:50:05;11.40;67.10
32706;DHT22;19094;50.972;3.538;2023-02-11T08:52:31;11.40;67.20
32706;DHT22;19094;50.972;3.538;2023-02-11T08:54:57;11.40;67.30
32706;DHT22;19094;50.972;3.538;2023-02-11T08:57:23;11.40;67.40
32706;DHT22;19094;50.972;3.538;2023-02-11T08:59:48;11.40;67.30
32706;DHT22;19094;50.972;3.538;2023-02-11T09:02:14;11.40;67.30
32706;DHT22;19094;50.972;3.538;2023-02-11T09:04:40;11.40;67.30
32706;DHT22;19094;50.972;3.538;2023-02-11T09:07:06;11.40;67.20
32706;DHT22;19094;50.972;3.538;2023-02-11T09:09:32;11.50;67.10
32706;DHT22;19094;50.972;3.538;2023-02-11T09:11:58;11.50;67.00
32706;DHT22;19094;50.972;3.538;2023-02-11T09:14:25;11.50;67.00
32706;DHT22;19094;50.972;3.538;2023-02-11T09:16:51;11.50;67.30
32706;DHT22;19094;50.972;3.538;2023-02-11T09:19:18;11.50;67.20
32706;DHT22;19094;50.972;3.538;2023-02-11T09:21:44;11.50;67.00
32706;DHT22;19094;50.972;3.538;2023-02-11T09:24:10;11.50;67.80
32706;DHT22;19094;50.972;3.538;2023-02-11T09:26:36;11.50;66.70
32706;DHT22;19094;50.972;3.538;2023-02-11T09:29:03;11.50;66.90
32706;DHT22;19094;50.972;3.538;2023-02-11T09:31:31;11.50;67.00
32706;DHT22;19094;50.972;3.538;2023-02-11T09:33:59;11.50;67.20
32706;DHT22;19094;50.972;3.538;2023-02-11T09:36:30;11.50;67.00
32706;DHT22;19094;50.972;3.538;2023-02-11T09:38:58;11.60;67.10
32706;DHT22;19094;50.972;3.538;2023-02-11T09:43:53;11.50;67.30
32706;DHT22;19094;50.972;3.538;2023-02-11T09:46:20;11.50;67.30
32706;DHT22;19094;50.972;3.538;2023-02-11T09:48:49;11.50;67.50
32706;DHT22;19094;50.972;3.538;2023-02-11T09:51:19;11.50;67.40
32706;DHT22;19094;50.972;3.538;2023-02-11T09:53:50;11.60;67.20
32706;DHT22;19094;50.972;3.538;2023-02-11T09:56:20;11.60;66.90
32706;DHT22;19094;50.972;3.538;2023-02-11T09:58:46;11.60;67.20
32706;DHT22;19094;50.972;3.538;2023-02-11T10:04:07;11.60;67.10
32706;DHT22;19094;50.972;3.538;2023-02-11T10:06:48;11.60;66.80
32706;DHT22;19094;50.972;3.538;2023-02-11T10:09:40;11.60;66.70
32706;DHT22;19094;50.972;3.538;2023-02-11T10:18:00;11.70;66.70
32706;DHT22;19094;50.972;3.538;2023-02-11T10:20:37;11.70;67.00
32706;DHT22;19094;50.972;3.538;2023-02-11T10:23:18;11.60;66.90
32706;DHT22;19094;50.972;3.538;2023-02-11T10:25:50;11.60;66.80
32706;DHT22;19094;50.972;3.538;2023-02-11T10:28:23;11.70;66.90
32706;DHT22;19094;50.972;3.538;2023-02-11T10:35:59;11.70;67.10
32706;DHT22;19094;50.972;3.538;2023-02-11T10:38:25;11.60;67.20
32706;DHT22;19094;50.972;3.538;2023-02-11T10:40:52;11.60;67.20
32706;DHT22;19094;50.972;3.538;2023-02-11T10:43:22;11.70;67.20
32706;DHT22;19094;50.972;3.538;2023-02-11T10:45:53;11.60;67.30
32706;DHT22;19094;50.972;3.538;2023-02-11T10:48:43;11.70;67.10
32706;DHT22;19094;50.972;3.538;2023-02-11T10:53:36;11.70;66.90
32706;DHT22;19094;50.972;3.538;2023-02-11T10:56:02;11.70;67.10
32706;DHT22;19094;50.972;3.538;2023-02-11T10:58:33;11.70;67.20
32706;DHT22;19094;50.972;3.538;2023-02-11T11:00:59;11.70;67.10
32706;DHT22;19094;50.972;3.538;2023-02-11T11:03:28;11.80;67.20
32706;DHT22;19094;50.972;3.538;2023-02-11T11:05:56;11.80;67.00
32706;DHT22;19094;50.972;3.538;2023-02-11T11:08:46;11.80;66.90
32706;DHT22;19094;50.972;3.538;2023-02-11T11:11:15;11.80;66.90
32706;DHT22;19094;50.972;3.538;2023-02-11T11:13:54;11.70;66.90
32706;DHT22;19094;50.972;3.538;2023-02-11T11:16:25;11.70;67.00
32706;DHT22;19094;50.972;3.538;2023-02-11T11:26:51;11.80;66.90
32706;DHT22;19094;50.972;3.538;2023-02-11T11:32:05;11.90;66.80
32706;DHT22;19094;50.972;3.538;2023-02-11T11:34:47;11.80;66.80
32706;DHT22;19094;50.972;3.538;2023-02-11T11:37:23;11.80;66.90
32706;DHT22;19094;50.972;3.538;2023-02-11T11:39:58;11.90;66.70
32706;DHT22;19094;50.972;3.538;2023-02-11T11:42:33;11.90;66.80
32706;DHT22;19094;50.972;3.538;2023-02-11T11:47:38;11.90;67.00
32706;DHT22;19094;50.972;3.538;2023-02-11T11:50:14;11.90;67.00
32706;DHT22;19094;50.972;3.538;2023-02-11T11:55:26;11.90;66.70
32706;DHT22;19094;50.972;3.538;2023-02-11T11:57:54;11.90;66.70
32706;DHT22;19094;50.972;3.538;2023-02-11T12:00:42;11.90;66.80
32706;DHT22;19094;50.972;3.538;2023-02-11T12:11:57;12.00;66.60
32706;DHT22;19094;50.972;3.538;2023-02-11T12:23:20;12.00;66.80
32706;DHT22;19094;50.972;3.538;2023-02-11T12:25:56;12.10;66.80
32706;DHT22;19094;50.972;3.538;2023-02-11T12:41:03;12.30;68.90
32706;DHT22;19094;50.972;3.538;2023-02-11T12:59:05;13.20;68.20
32706;DHT22;19094;50.972;3.538;2023-02-11T13:01:38;13.10;68.40
32706;DHT22;19094;50.972;3.538;2023-02-11T13:04:11;13.10;68.40
32706;DHT22;19094;50.972;3.538;2023-02-11T13:06:42;13.20;68.20
32706;DHT22;19094;50.972;3.538;2023-02-11T13:09:34;13.10;68.60
32706;DHT22;19094;50.972;3.538;2023-02-11T13:12:02;13.20;68.70
32706;DHT22;19094;50.972;3.538;2023-02-11T13:14:49;13.10;68.80
32706;DHT22;19094;50.972;3.538;2023-02-11T13:17:24;13.20;68.80
32706;DHT22;19094;50.972;3.538;2023-02-11T13:19:58;13.20;68.60
32706;DHT22;19094;50.972;3.538;2023-02-11T13:22:33;13.40;68.70
32706;DHT22;19094;50.972;3.538;2023-02-11T13:25:14;13.40;68.40
32706;DHT22;19094;50.972;3.538;2023-02-11T13:35:37;13.50;68.50
32706;DHT22;19094;50.972;3.538;2023-02-11T13:38:25;13.50;68.90
32706;DHT22;19094;50.972;3.538;2023-02-11T13:41:02;13.40;68.40
32706;DHT22;19094;50.972;3.538;2023-02-11T13:43:30;13.40;68.70
32706;DHT22;19094;50.972;3.538;2023-02-11T13:46:03;13.40;69.00
32706;DHT22;19094;50.972;3.538;2023-02-11T13:48:32;13.40;68.70
32706;DHT22;19094;50.972;3.538;2023-02-11T13:51:02;13.40;68.80
32706;DHT22;19094;50.972;3.538;2023-02-11T13:53:29;13.50;68.60
32706;DHT22;19094;50.972;3.538;2023-02-11T13:56:07;13.50;68.20
32706;DHT22;19094;50.972;3.538;2023-02-11T13:58:35;13.30;68.70
32706;DHT22;19094;50.972;3.538;2023-02-11T14:01:04;13.20;69.10
32706;DHT22;19094;50.972;3.538;2023-02-11T14:03:38;13.20;69.50
32706;DHT22;19094;50.972;3.538;2023-02-11T14:06:27;13.30;69.80
32706;DHT22;19094;50.972;3.538;2023-02-11T14:11:52;13.30;69.90
32706;DHT22;19094;50.972;3.538;2023-02-11T14:14:27;13.40;69.40
32706;DHT22;19094;50.972;3.538;2023-02-11T14:19:43;13.30;69.80
32706;DHT22;19094;50.972;3.538;2023-02-11T14:22:23;13.40;69.80
32706;DHT22;19094;50.972;3.538;2023-02-11T14:24:52;13.60;69.10
32706;DHT22;19094;50.972;3.538;2023-02-11T14:32:28;13.60;69.30
32706;DHT22;19094;50.972;3.538;2023-02-11T14:35:21;13.60;69.10
32706;DHT22;19094;50.972;3.538;2023-02-11T14:43:49;13.50;69.50
32706;DHT22;19094;50.972;3.538;2023-02-11T14:46:17;13.40;70.50
32706;DHT22;19094;50.972;3.538;2023-02-11T14:48:52;13.40;70.40
32706;DHT22;19094;50.972;3.538;2023-02-11T14:51:26;13.30;70.50
32706;DHT22;19094;50.972;3.538;2023-02-11T14:53:56;13.40;71.10
32706;DHT22;19094;50.972;3.538;2023-02-11T14:56:27;13.40;71.50
32706;DHT22;19094;50.972;3.538;2023-02-11T14:58:56;13.50;71.90
32706;DHT22;19094;50.972;3.538;2023-02-11T15:01:27;13.50;72.50
32706;DHT22;19094;50.972;3.538;2023-02-11T15:04:04;13.60;72.80
32706;DHT22;19094;50.972;3.538;2023-02-11T15:06:41;13.60;72.80
32706;DHT22;19094;50.972;3.538;2023-02-11T15:09:25;13.50;72.90
32706;DHT22;19094;50.972;3.538;2023-02-11T15:11:55;13.50;73.00
32706;DHT22;19094;50.972;3.538;2023-02-11T15:14:27;13.50;73.40
32706;DHT22;19094;50.972;3.538;2023-02-11T15:17:00;13.50;73.60
32706;DHT22;19094;50.972;3.538;2023-02-11T15:21:56;13.50;74.20
32706;DHT22;19094;50.972;3.538;2023-02-11T15:24:29;13.50;74.40
32706;DHT22;19094;50.972;3.538;2023-02-11T15:29:35;13.50;74.20
32706;DHT22;19094;50.972;3.538;2023-02-11T15:32:06;13.50;73.70
32706;DHT22;19094;50.972;3.538;2023-02-11T15:34:32;13.40;74.80
32706;DHT22;19094;50.972;3.538;2023-02-11T15:36:58;13.50;75.10
32706;DHT22;19094;50.972;3.538;2023-02-11T15:39:37;13.50;75.20
32706;DHT22;19094;50.972;3.538;2023-02-11T15:42:34;13.50;74.50
32706;DHT22;19094;50.972;3.538;2023-02-11T15:47:34;13.60;74.80
32706;DHT22;19094;50.972;3.538;2023-02-11T15:50:00;13.50;75.00
32706;DHT22;19094;50.972;3.538;2023-02-11T15:52:27;13.50;74.90
32706;DHT22;19094;50.972;3.538;2023-02-11T15:54:54;13.50;74.80
32706;DHT22;19094;50.972;3.538;2023-02-11T15:57:23;13.50;74.10
32706;DHT22;19094;50.972;3.538;2023-02-11T15:59:51;13.30;73.90
32706;DHT22;19094;50.972;3.538;2023-02-11T16:02:28;13.20;73.80
32706;DHT22;19094;50.972;3.538;2023-02-11T16:05:04;13.20;73.80
32706;DHT22;19094;50.972;3.538;2023-02-11T16:07:45;13.20;73.60
32706;DHT22;19094;50.972;3.538;2023-02-11T16:10:27;13.20;73.50
32706;DHT22;19094;50.972;3.538;2023-02-11T16:15:37;13.10;73.30
32706;DHT22;19094;50.972;3.538;2023-02-11T16:18:25;13.10;73.50
32706;DHT22;19094;50.972;3.538;2023-02-11T16:20:53;13.20;73.50
32706;DHT22;19094;50.972;3.538;2023-02-11T16:24:14;13.20;73.40
32706;DHT22;19094;50.972;3.538;2023-02-11T16:26:37;13.20;73.80
32706;DHT22;19094;50.972;3.538;2023-02-11T16:29:13;13.30;74.70
32706;DHT22;19094;50.972;3.538;2023-02-11T16:31:42;13.30;74.70
32706;DHT22;19094;50.972;3.538;2023-02-11T16:34:24;13.30;74.00
32706;DHT22;19094;50.972;3.538;2023-02-11T16:36:51;13.20;73.60
32706;DHT22;19094;50.972;3.538;2023-02-11T16:39:18;13.20;73.50
32706;DHT22;19094;50.972;3.538;2023-02-11T16:41:48;13.30;74.30
32706;DHT22;19094;50.972;3.538;2023-02-11T16:44:15;13.40;74.50
32706;DHT22;19094;50.972;3.538;2023-02-11T16:46:41;13.40;74.40
32706;DHT22;19094;50.972;3.538;2023-02-11T16:49:10;13.40;74.70
32706;DHT22;19094;50.972;3.538;2023-02-11T16:51:38;13.50;74.10
32706;DHT22;19094;50.972;3.538;2023-02-11T16:54:05;13.40;73.90
32706;DHT22;19094;50.972;3.538;2023-02-11T16:56:30;13.40;73.80
32706;DHT22;19094;50.972;3.538;2023-02-11T16:58:56;13.40;73.20
32706;DHT22;19094;50.972;3.538;2023-02-11T17:01:22;13.20;73.10
32706;DHT22;19094;50.972;3.538;2023-02-11T17:03:47;13.10;73.00
32706;DHT22;19094;50.972;3.538;2023-02-11T17:06:13;13.00;72.90
32706;DHT22;19094;50.972;3.538;2023-02-11T17:08:39;13.00;72.90
32706;DHT22;19094;50.972;3.538;2023-02-11T17:11:05;13.00;72.90
32706;DHT22;19094;50.972;3.538;2023-02-11T17:13:32;13.00;72.80
32706;DHT22;19094;50.972;3.538;2023-02-11T17:15:57;12.90;72.70
32706;DHT22;19094;50.972;3.538;2023-02-11T17:18:23;12.90;72.70
32706;DHT22;19094;50.972;3.538;2023-02-11T17:20:49;12.90;72.60
32706;DHT22;19094;50.972;3.538;2023-02-11T17:23:15;12.90;72.40
32706;DHT22;19094;50.972;3.538;2023-02-11T17:25:40;12.90;72.30
32706;DHT22;19094;50.972;3.538;2023-02-11T17:28:07;12.90;72.10
32706;DHT22;19094;50.972;3.538;2023-02-11T17:30:33;12.90;72.00
32706;DHT22;19094;50.972;3.538;2023-02-11T17:32:59;12.90;71.80
32706;DHT22;19094;50.972;3.538;2023-02-11T17:35:25;12.90;71.80
32706;DHT22;19094;50.972;3.538;2023-02-11T17:37:51;13.00;72.30
32706;DHT22;19094;50.972;3.538;2023-02-11T17:40:16;13.10;72.20
32706;DHT22;19094;50.972;3.538;2023-02-11T17:42:42;13.10;72.80
32706;DHT22;19094;50.972;3.538;2023-02-11T17:45:08;13.10;72.40
32706;DHT22;19094;50.972;3.538;2023-02-11T17:47:34;13.20;73.10
32706;DHT22;19094;50.972;3.538;2023-02-11T17:50:00;13.10;72.20
32706;DHT22;19094;50.972;3.538;2023-02-11T17:52:27;13.00;72.50
32706;DHT22;19094;50.972;3.538;2023-02-11T17:54:53;13.10;72.90
32706;DHT22;19094;50.972;3.538;2023-02-11T17:57:19;13.20;73.80
32706;DHT22;19094;50.972;3.538;2023-02-11T17:59:45;13.20;73.30
32706;DHT22;19094;50.972;3.538;2023-02-11T18:02:11;13.10;72.40